sensor_id;sensor_type;location;lat;lon;timestamp;P1;durP1;ratioP1;P2;durP2;ratioP2
15553;SDS011;7878;44.632;10.942;2023-05-16T00:01:33;8.85;;;6.10;;
15553;SDS011;7878;44.632;10.942;2023-05-16T00:03:59;6.70;;;6.10;;
15553;SDS011;7878;44.632;10.942;2023-05-16T00:06:26;12.13;;;6.38;;
15553;SDS011;7878;44.632;10.942;2023-05-16T00:08:52;7.82;;;7.00;;
15553;SDS011;7878;44.632;10.942;2023-05-16T00:11:17;9.30;;;7.10;;
15553;SDS011;7878;44.632;10.942;2023-05-16T00:13:43;10.18;;;7.05;;
15553;SDS011;7878;44.632;10.942;2023-05-16T00:16:11;8.10;;;7.30;;
15553;SDS011;7878;44.632;10.942;2023-05-16T00:18:38;10.50;;;8.07;;
15553;SDS011;7878;44.632;10.942;2023-05-16T00:21:04;8.82;;;8.02;;
15553;SDS011;7878;44.632;10.942;2023-05-16T00:23:30;9.38;;;8.38;;
15553;SDS011;7878;44.632;10.942;2023-05-16T00:25:56;9.02;;;7.85;;
15553;SDS011;7878;44.632;10.942;2023-05-16T00:28:22;10.38;;;7.70;;
15553;SDS011;7878;44.632;10.942;2023-05-16T00:30:48;8.73;;;7.40;;
15553;SDS011;7878;44.632;10.942;2023-05-16T00:33:14;14.00;;;8.25;;
15553;SDS011;7878;44.632;10.942;2023-05-16T00:35:40;9.48;;;8.48;;
15553;SDS011;7878;44.632;10.942;2023-05-16T00:38:05;8.27;;;7.50;;
15553;SDS011;7878;44.632;10.942;2023-05-16T00:40:31;9.52;;;8.25;;
15553;SDS011;7878;44.632;10.942;2023-05-16T00:42:57;9.05;;;8.15;;
15553;SDS011;7878;44.632;10.942;2023-05-16T00:45:23;8.60;;;7.78;;
15553;SDS011;7878;44.632;10.942;2023-05-16T00:47:49;10.85;;;7.32;;
15553;SDS011;7878;44.632;10.942;2023-05-16T00:50:17;8.45;;;7.60;;
15553;SDS011;7878;44.632;10.942;2023-05-16T00:52:43;9.93;;;7.18;;
15553;SDS011;7878;44.632;10.942;2023-05-16T00:55:09;8.57;;;7.68;;
15553;SDS011;7878;44.632;10.942;2023-05-16T00:57:38;9.88;;;7.88;;
15553;SDS011;7878;44.632;10.942;2023-05-16T01:00:05;10.32;;;7.55;;
15553;SDS011;7878;44.632;10.942;2023-05-16T01:02:34;8.48;;;7.68;;
15553;SDS011;7878;44.632;10.942;2023-05-16T01:05:01;10.05;;;7.97;;
15553;SDS011;7878;44.632;10.942;2023-05-16T01:07:32;8.85;;;8.05;;
15553;SDS011;7878;44.632;10.942;2023-05-16T01:09:59;9.55;;;8.48;;
15553;SDS011;7878;44.632;10.942;2023-05-16T01:12:44;8.88;;;8.07;;
15553;SDS011;7878;44.632;10.942;2023-05-16T01:15:17;8.80;;;7.93;;
15553;SDS011;7878;44.632;10.942;2023-05-16T01:17:59;9.15;;;8.25;;
15553;SDS011;7878;44.632;10.942;2023-05-16T01:26:33;8.65;;;7.85;;
15553;SDS011;7878;44.632;10.942;2023-05-16T01:29:00;10.40;;;7.95;;
15553;SDS011;7878;44.632;10.942;2023-05-16T01:31:27;9.82;;;7.18;;
15553;SDS011;7878;44.632;10.942;2023-05-16T01:33:53;8.82;;;7.90;;
15553;SDS011;7878;44.632;10.942;2023-05-16T01:39:14;7.32;;;6.68;;
15553;SDS011;7878;44.632;10.942;2023-05-16T01:42:09;7.20;;;6.35;;
15553;SDS011;7878;44.632;10.942;2023-05-16T01:44:44;7.75;;;6.68;;
15553;SDS011;7878;44.632;10.942;2023-05-16T01:47:26;6.43;;;5.93;;
15553;SDS011;7878;44.632;10.942;2023-05-16T01:52:26;6.97;;;6.03;;
15553;SDS011;7878;44.632;10.942;2023-05-16T01:54:56;7.65;;;6.70;;
15553;SDS011;7878;44.632;10.942;2023-05-16T01:57:25;6.97;;;5.80;;
15553;SDS011;7878;44.632;10.942;2023-05-16T01:59:52;6.30;;;5.35;;
15553;SDS011;7878;44.632;10.942;2023-05-16T02:02:18;8.00;;;6.20;;
15553;SDS011;7878;44.632;10.942;2023-05-16T02:04:44;7.60;;;5.53;;
15553;SDS011;7878;44.632;10.942;2023-05-16T02:07:10;9.10;;;6.30;;
15553;SDS011;7878;44.632;10.942;2023-05-16T02:09:39;6.50;;;5.82;;
15553;SDS011;7878;44.632;10.942;2023-05-16T02:12:05;6.78;;;6.07;;
15553;SDS011;7878;44.632;10.942;2023-05-16T02:14:30;6.40;;;5.80;;
15553;SDS011;7878;44.632;10.942;2023-05-16T02:16:56;6.40;;;5.80;;
15553;SDS011;7878;44.632;10.942;2023-05-16T02:19:22;6.88;;;5.90;;
15553;SDS011;7878;44.632;10.942;2023-05-16T02:21:48;5.68;;;5.18;;
15553;SDS011;7878;44.632;10.942;2023-05-16T02:24:14;9.05;;;5.18;;
15553;SDS011;7878;44.632;10.942;2023-05-16T02:26:40;8.27;;;4.80;;
15553;SDS011;7878;44.632;10.942;2023-05-16T02:29:06;5.25;;;4.75;;
15553;SDS011;7878;44.632;10.942;2023-05-16T02:31:31;8.45;;;4.55;;
15553;SDS011;7878;44.632;10.942;2023-05-16T02:33:58;7.50;;;4.25;;
15553;SDS011;7878;44.632;10.942;2023-05-16T02:36:25;6.43;;;4.40;;
15553;SDS011;7878;44.632;10.942;2023-05-16T02:38:51;4.43;;;4.03;;
15553;SDS011;7878;44.632;10.942;2023-05-16T02:41:17;8.60;;;4.32;;
15553;SDS011;7878;44.632;10.942;2023-05-16T02:43:43;4.32;;;3.92;;
15553;SDS011;7878;44.632;10.942;2023-05-16T02:48:46;6.38;;;3.70;;
15553;SDS011;7878;44.632;10.942;2023-05-16T02:51:12;5.75;;;3.10;;
15553;SDS011;7878;44.632;10.942;2023-05-16T02:53:37;3.83;;;3.47;;
15553;SDS011;7878;44.632;10.942;2023-05-16T02:56:03;4.22;;;3.35;;
15553;SDS011;7878;44.632;10.942;2023-05-16T02:58:31;3.38;;;3.08;;
15553;SDS011;7878;44.632;10.942;2023-05-16T03:00:57;4.70;;;3.47;;
15553;SDS011;7878;44.632;10.942;2023-05-16T03:03:22;3.35;;;3.03;;
15553;SDS011;7878;44.632;10.942;2023-05-16T03:05:48;3.15;;;2.80;;
15553;SDS011;7878;44.632;10.942;2023-05-16T03:08:15;2.47;;;2.05;;
15553;SDS011;7878;44.632;10.942;2023-05-16T03:10:40;5.88;;;2.22;;
15553;SDS011;7878;44.632;10.942;2023-05-16T03:13:06;5.57;;;1.80;;
15553;SDS011;7878;44.632;10.942;2023-05-16T03:15:32;4.65;;;1.92;;
15553;SDS011;7878;44.632;10.942;2023-05-16T03:17:57;2.90;;;1.42;;
15553;SDS011;7878;44.632;10.942;2023-05-16T03:20:23;6.25;;;1.92;;
15553;SDS011;7878;44.632;10.942;2023-05-16T03:22:49;8.05;;;1.83;;
15553;SDS011;7878;44.632;10.942;2023-05-16T03:25:15;3.63;;;1.50;;
15553;SDS011;7878;44.632;10.942;2023-05-16T03:27:40;6.38;;;1.30;;
15553;SDS011;7878;44.632;10.942;2023-05-16T03:30:06;2.38;;;1.30;;
15553;SDS011;7878;44.632;10.942;2023-05-16T03:32:33;2.33;;;1.30;;
15553;SDS011;7878;44.632;10.942;2023-05-16T03:34:58;4.38;;;1.42;;
15553;SDS011;7878;44.632;10.942;2023-05-16T03:37:24;5.10;;;1.50;;
15553;SDS011;7878;44.632;10.942;2023-05-16T03:39:50;4.03;;;1.20;;
15553;SDS011;7878;44.632;10.942;2023-05-16T03:42:16;6.15;;;1.42;;
15553;SDS011;7878;44.632;10.942;2023-05-16T03:44:42;4.97;;;1.40;;
15553;SDS011;7878;44.632;10.942;2023-05-16T03:47:08;3.67;;;1.23;;
15553;SDS011;7878;44.632;10.942;2023-05-16T03:49:34;4.82;;;1.42;;
15553;SDS011;7878;44.632;10.942;2023-05-16T03:52:01;6.35;;;1.35;;
15553;SDS011;7878;44.632;10.942;2023-05-16T03:54:30;4.45;;;1.30;;
15553;SDS011;7878;44.632;10.942;2023-05-16T03:56:56;6.38;;;1.50;;
15553;SDS011;7878;44.632;10.942;2023-05-16T03:59:21;2.35;;;1.08;;
15553;SDS011;7878;44.632;10.942;2023-05-16T04:01:47;3.88;;;1.45;;
15553;SDS011;7878;44.632;10.942;2023-05-16T04:04:14;2.15;;;1.20;;
15553;SDS011;7878;44.632;10.942;2023-05-16T04:06:39;6.97;;;1.52;;
15553;SDS011;7878;44.632;10.942;2023-05-16T04:09:05;3.63;;;1.80;;
15553;SDS011;7878;44.632;10.942;2023-05-16T04:11:31;9.48;;;1.50;;
15553;SDS011;7878;44.632;10.942;2023-05-16T04:13:58;4.88;;;1.35;;
15553;SDS011;7878;44.632;10.942;2023-05-16T04:16:25;2.58;;;1.20;;
15553;SDS011;7878;44.632;10.942;2023-05-16T04:18:51;11.05;;;2.00;;
15553;SDS011;7878;44.632;10.942;2023-05-16T04:21:16;3.10;;;1.40;;
15553;SDS011;7878;44.632;10.942;2023-05-16T04:23:42;2.28;;;1.38;;
15553;SDS011;7878;44.632;10.942;2023-05-16T04:26:08;4.38;;;1.48;;
15553;SDS011;7878;44.632;10.942;2023-05-16T04:28:34;3.15;;;1.70;;
15553;SDS011;7878;44.632;10.942;2023-05-16T04:31:00;6.28;;;1.70;;
15553;SDS011;7878;44.632;10.942;2023-05-16T04:33:26;4.20;;;1.50;;
15553;SDS011;7878;44.632;10.942;2023-05-16T04:35:51;4.20;;;1.60;;
15553;SDS011;7878;44.632;10.942;2023-05-16T04:38:18;4.78;;;1.45;;
15553;SDS011;7878;44.632;10.942;2023-05-16T04:40:44;3.75;;;1.38;;
15553;SDS011;7878;44.632;10.942;2023-05-16T04:43:10;2.85;;;1.50;;
15553;SDS011;7878;44.632;10.942;2023-05-16T04:45:36;8.30;;;1.63;;
15553;SDS011;7878;44.632;10.942;2023-05-16T04:48:01;4.20;;;2.10;;
15553;SDS011;7878;44.632;10.942;2023-05-16T04:50:28;5.07;;;1.25;;
15553;SDS011;7878;44.632;10.942;2023-05-16T04:52:53;2.35;;;1.30;;
15553;SDS011;7878;44.632;10.942;2023-05-16T04:55:19;5.22;;;1.70;;
15553;SDS011;7878;44.632;10.942;2023-05-16T04:57:45;6.72;;;2.13;;
15553;SDS011;7878;44.632;10.942;2023-05-16T05:00:11;4.85;;;1.33;;
15553;SDS011;7878;44.632;10.942;2023-05-16T05:02:37;4.00;;;1.58;;
15553;SDS011;7878;44.632;10.942;2023-05-16T05:05:04;2.50;;;1.40;;
15553;SDS011;7878;44.632;10.942;2023-05-16T05:07:31;4.38;;;1.50;;
15553;SDS011;7878;44.632;10.942;2023-05-16T05:09:57;3.92;;;1.52;;
15553;SDS011;7878;44.632;10.942;2023-05-16T05:12:23;2.47;;;1.50;;
15553;SDS011;7878;44.632;10.942;2023-05-16T05:14:49;3.63;;;1.83;;
15553;SDS011;7878;44.632;10.942;2023-05-16T05:17:15;2.83;;;1.63;;
15553;SDS011;7878;44.632;10.942;2023-05-16T05:19:42;5.53;;;2.28;;
15553;SDS011;7878;44.632;10.942;2023-05-16T05:22:07;6.78;;;1.88;;
15553;SDS011;7878;44.632;10.942;2023-05-16T05:24:33;7.20;;;2.10;;
15553;SDS011;7878;44.632;10.942;2023-05-16T05:26:59;3.63;;;1.58;;
15553;SDS011;7878;44.632;10.942;2023-05-16T05:29:25;3.97;;;1.92;;
15553;SDS011;7878;44.632;10.942;2023-05-16T05:31:51;5.47;;;1.85;;
15553;SDS011;7878;44.632;10.942;2023-05-16T05:34:16;4.53;;;2.03;;
15553;SDS011;7878;44.632;10.942;2023-05-16T05:36:42;6.35;;;2.05;;
15553;SDS011;7878;44.632;10.942;2023-05-16T05:39:08;7.00;;;2.00;;
15553;SDS011;7878;44.632;10.942;2023-05-16T05:41:34;3.15;;;2.30;;
15553;SDS011;7878;44.632;10.942;2023-05-16T05:44:00;5.22;;;2.17;;
15553;SDS011;7878;44.632;10.942;2023-05-16T05:46:26;5.35;;;2.00;;
15553;SDS011;7878;44.632;10.942;2023-05-16T05:48:52;3.28;;;1.63;;
15553;SDS011;7878;44.632;10.942;2023-05-16T05:51:17;3.50;;;1.35;;
15553;SDS011;7878;44.632;10.942;2023-05-16T05:53:43;2.65;;;1.75;;
15553;SDS011;7878;44.632;10.942;2023-05-16T05:56:09;3.28;;;1.90;;
15553;SDS011;7878;44.632;10.942;2023-05-16T05:58:34;5.68;;;2.28;;
15553;SDS011;7878;44.632;10.942;2023-05-16T06:01:00;5.22;;;1.98;;
15553;SDS011;7878;44.632;10.942;2023-05-16T06:03:26;5.75;;;2.28;;
15553;SDS011;7878;44.632;10.942;2023-05-16T06:05:52;4.43;;;2.30;;
15553;SDS011;7878;44.632;10.942;2023-05-16T06:08:18;3.90;;;2.40;;
15553;SDS011;7878;44.632;10.942;2023-05-16T06:10:43;3.75;;;2.17;;
15553;SDS011;7878;44.632;10.942;2023-05-16T06:13:10;5.82;;;2.70;;
15553;SDS011;7878;44.632;10.942;2023-05-16T06:15:36;6.72;;;2.88;;
15553;SDS011;7878;44.632;10.942;2023-05-16T06:18:01;7.47;;;2.90;;
15553;SDS011;7878;44.632;10.942;2023-05-16T06:20:27;7.57;;;2.65;;
15553;SDS011;7878;44.632;10.942;2023-05-16T06:22:53;4.53;;;2.40;;
15553;SDS011;7878;44.632;10.942;2023-05-16T06:25:18;4.68;;;1.92;;
15553;SDS011;7878;44.632;10.942;2023-05-16T06:27:44;9.85;;;2.47;;
15553;SDS011;7878;44.632;10.942;2023-05-16T06:30:10;5.82;;;2.58;;
15553;SDS011;7878;44.632;10.942;2023-05-16T06:32:36;5.10;;;2.15;;
15553;SDS011;7878;44.632;10.942;2023-05-16T06:35:01;3.75;;;1.80;;
15553;SDS011;7878;44.632;10.942;2023-05-16T06:37:27;4.43;;;2.47;;
15553;SDS011;7878;44.632;10.942;2023-05-16T06:39:53;4.20;;;2.15;;
15553;SDS011;7878;44.632;10.942;2023-05-16T06:42:18;4.32;;;1.80;;
15553;SDS011;7878;44.632;10.942;2023-05-16T06:44:45;4.50;;;2.22;;
15553;SDS011;7878;44.632;10.942;2023-05-16T06:47:11;5.53;;;2.17;;
15553;SDS011;7878;44.632;10.942;2023-05-16T06:49:36;3.08;;;2.00;;
15553;SDS011;7878;44.632;10.942;2023-05-16T06:52:02;5.25;;;2.08;;
15553;SDS011;7878;44.632;10.942;2023-05-16T06:54:28;3.28;;;1.95;;
15553;SDS011;7878;44.632;10.942;2023-05-16T06:56:53;1.92;;;1.70;;
15553;SDS011;7878;44.632;10.942;2023-05-16T06:59:19;4.65;;;2.95;;
15553;SDS011;7878;44.632;10.942;2023-05-16T07:01:45;7.03;;;2.22;;
15553;SDS011;7878;44.632;10.942;2023-05-16T07:04:11;4.15;;;2.00;;
15553;SDS011;7878;44.632;10.942;2023-05-16T07:06:36;8.27;;;3.03;;
15553;SDS011;7878;44.632;10.942;2023-05-16T07:09:02;5.22;;;2.78;;
15553;SDS011;7878;44.632;10.942;2023-05-16T07:11:28;3.63;;;2.70;;
15553;SDS011;7878;44.632;10.942;2023-05-16T07:13:54;7.55;;;3.45;;
15553;SDS011;7878;44.632;10.942;2023-05-16T07:16:20;7.60;;;4.43;;
15553;SDS011;7878;44.632;10.942;2023-05-16T07:18:45;4.32;;;2.88;;
15553;SDS011;7878;44.632;10.942;2023-05-16T07:21:11;6.80;;;3.40;;
15553;SDS011;7878;44.632;10.942;2023-05-16T07:23:36;3.58;;;2.88;;
15553;SDS011;7878;44.632;10.942;2023-05-16T07:26:02;9.38;;;3.30;;
15553;SDS011;7878;44.632;10.942;2023-05-16T07:28:28;8.90;;;4.65;;
15553;SDS011;7878;44.632;10.942;2023-05-16T07:30:53;8.38;;;4.03;;
15553;SDS011;7878;44.632;10.942;2023-05-16T07:33:22;5.30;;;3.60;;
15553;SDS011;7878;44.632;10.942;2023-05-16T07:35:48;7.38;;;3.75;;
15553;SDS011;7878;44.632;10.942;2023-05-16T07:38:15;6.22;;;2.88;;
15553;SDS011;7878;44.632;10.942;2023-05-16T07:40:40;5.80;;;3.10;;
15553;SDS011;7878;44.632;10.942;2023-05-16T07:43:06;4.85;;;3.33;;
15553;SDS011;7878;44.632;10.942;2023-05-16T07:45:32;8.70;;;3.90;;
15553;SDS011;7878;44.632;10.942;2023-05-16T07:47:57;9.65;;;4.13;;
15553;SDS011;7878;44.632;10.942;2023-05-16T07:50:24;6.15;;;2.95;;
15553;SDS011;7878;44.632;10.942;2023-05-16T07:52:50;5.88;;;2.80;;
15553;SDS011;7878;44.632;10.942;2023-05-16T07:55:16;5.18;;;2.65;;
15553;SDS011;7878;44.632;10.942;2023-05-16T07:57:42;4.32;;;2.47;;
15553;SDS011;7878;44.632;10.942;2023-05-16T08:00:08;5.07;;;2.90;;
15553;SDS011;7878;44.632;10.942;2023-05-16T08:02:34;3.65;;;2.67;;
15553;SDS011;7878;44.632;10.942;2023-05-16T08:05:00;9.38;;;3.30;;
15553;SDS011;7878;44.632;10.942;2023-05-16T08:07:26;4.13;;;2.55;;
15553;SDS011;7878;44.632;10.942;2023-05-16T08:09:51;4.75;;;2.88;;
15553;SDS011;7878;44.632;10.942;2023-05-16T08:12:17;2.80;;;2.28;;
15553;SDS011;7878;44.632;10.942;2023-05-16T08:14:43;6.28;;;2.80;;
15553;SDS011;7878;44.632;10.942;2023-05-16T08:17:08;6.57;;;2.65;;
15553;SDS011;7878;44.632;10.942;2023-05-16T08:19:34;8.25;;;2.92;;
15553;SDS011;7878;44.632;10.942;2023-05-16T08:22:00;3.42;;;2.47;;
15553;SDS011;7878;44.632;10.942;2023-05-16T08:24:26;4.25;;;2.28;;
15553;SDS011;7878;44.632;10.942;2023-05-16T08:26:52;4.60;;;2.20;;
15553;SDS011;7878;44.632;10.942;2023-05-16T08:29:18;5.20;;;2.58;;
15553;SDS011;7878;44.632;10.942;2023-05-16T08:31:43;3.38;;;2.45;;
15553;SDS011;7878;44.632;10.942;2023-05-16T08:34:09;4.40;;;2.50;;
15553;SDS011;7878;44.632;10.942;2023-05-16T08:36:38;5.07;;;1.85;;
15553;SDS011;7878;44.632;10.942;2023-05-16T08:39:04;6.57;;;2.40;;
15553;SDS011;7878;44.632;10.942;2023-05-16T08:41:29;5.78;;;2.33;;
15553;SDS011;7878;44.632;10.942;2023-05-16T08:43:55;4.55;;;2.10;;
15553;SDS011;7878;44.632;10.942;2023-05-16T08:46:22;9.45;;;3.05;;
15553;SDS011;7878;44.632;10.942;2023-05-16T08:48:51;5.72;;;2.30;;
15553;SDS011;7878;44.632;10.942;2023-05-16T08:51:18;6.25;;;2.58;;
15553;SDS011;7878;44.632;10.942;2023-05-16T08:53:48;3.55;;;2.10;;
15553;SDS011;7878;44.632;10.942;2023-05-16T08:56:18;3.97;;;2.33;;
15553;SDS011;7878;44.632;10.942;2023-05-16T08:58:46;5.10;;;2.55;;
15553;SDS011;7878;44.632;10.942;2023-05-16T09:01:13;3.33;;;2.25;;
15553;SDS011;7878;44.632;10.942;2023-05-16T09:03:39;2.65;;;2.42;;
15553;SDS011;7878;44.632;10.942;2023-05-16T09:06:06;7.15;;;2.50;;
15553;SDS011;7878;44.632;10.942;2023-05-16T09:08:32;7.20;;;2.65;;
15553;SDS011;7878;44.632;10.942;2023-05-16T09:10:59;4.53;;;2.55;;
15553;SDS011;7878;44.632;10.942;2023-05-16T09:13:26;7.05;;;2.80;;
15553;SDS011;7878;44.632;10.942;2023-05-16T09:16:07;4.45;;;2.80;;
15553;SDS011;7878;44.632;10.942;2023-05-16T09:18:34;4.05;;;2.88;;
15553;SDS011;7878;44.632;10.942;2023-05-16T09:21:02;5.10;;;2.78;;
15553;SDS011;7878;44.632;10.942;2023-05-16T09:23:28;4.63;;;2.20;;
15553;SDS011;7878;44.632;10.942;2023-05-16T09:25:56;4.07;;;2.40;;
15553;SDS011;7878;44.632;10.942;2023-05-16T09:28:22;4.85;;;2.58;;
15553;SDS011;7878;44.632;10.942;2023-05-16T09:30:49;4.70;;;3.30;;
15553;SDS011;7878;44.632;10.942;2023-05-16T09:33:17;6.57;;;3.20;;
15553;SDS011;7878;44.632;10.942;2023-05-16T09:35:43;5.57;;;3.58;;
15553;SDS011;7878;44.632;10.942;2023-05-16T09:38:15;3.92;;;2.97;;
15553;SDS011;7878;44.632;10.942;2023-05-16T09:40:41;6.93;;;3.63;;
15553;SDS011;7878;44.632;10.942;2023-05-16T09:43:07;4.88;;;2.60;;
15553;SDS011;7878;44.632;10.942;2023-05-16T09:45:33;3.05;;;1.98;;
15553;SDS011;7878;44.632;10.942;2023-05-16T09:48:04;2.55;;;2.10;;
15553;SDS011;7878;44.632;10.942;2023-05-16T09:50:31;4.55;;;2.70;;
15553;SDS011;7878;44.632;10.942;2023-05-16T09:52:58;6.80;;;2.58;;
15553;SDS011;7878;44.632;10.942;2023-05-16T09:55:25;5.40;;;2.85;;
15553;SDS011;7878;44.632;10.942;2023-05-16T09:57:50;5.90;;;3.05;;
15553;SDS011;7878;44.632;10.942;2023-05-16T10:00:16;4.60;;;2.55;;
15553;SDS011;7878;44.632;10.942;2023-05-16T10:02:42;5.40;;;2.65;;
15553;SDS011;7878;44.632;10.942;2023-05-16T10:05:08;2.70;;;2.33;;
15553;SDS011;7878;44.632;10.942;2023-05-16T10:07:34;2.72;;;2.53;;
15553;SDS011;7878;44.632;10.942;2023-05-16T10:10:05;4.07;;;2.60;;
15553;SDS011;7878;44.632;10.942;2023-05-16T10:12:32;3.25;;;2.58;;
15553;SDS011;7878;44.632;10.942;2023-05-16T10:15:02;4.53;;;2.67;;
15553;SDS011;7878;44.632;10.942;2023-05-16T10:17:31;5.35;;;3.83;;
15553;SDS011;7878;44.632;10.942;2023-05-16T10:20:00;4.25;;;2.78;;
15553;SDS011;7878;44.632;10.942;2023-05-16T10:22:31;4.15;;;2.88;;
15553;SDS011;7878;44.632;10.942;2023-05-16T10:25:03;4.97;;;2.85;;
15553;SDS011;7878;44.632;10.942;2023-05-16T10:27:36;6.30;;;3.30;;
15553;SDS011;7878;44.632;10.942;2023-05-16T10:30:04;3.45;;;2.88;;
15553;SDS011;7878;44.632;10.942;2023-05-16T10:32:31;3.90;;;2.95;;
15553;SDS011;7878;44.632;10.942;2023-05-16T10:34:58;4.68;;;3.40;;
15553;SDS011;7878;44.632;10.942;2023-05-16T10:37:27;4.28;;;3.65;;
15553;SDS011;7878;44.632;10.942;2023-05-16T10:39:54;8.43;;;3.70;;
15553;SDS011;7878;44.632;10.942;2023-05-16T10:42:20;4.25;;;3.40;;
15553;SDS011;7878;44.632;10.942;2023-05-16T10:44:46;6.07;;;3.72;;
15553;SDS011;7878;44.632;10.942;2023-05-16T10:47:11;7.50;;;4.15;;
15553;SDS011;7878;44.632;10.942;2023-05-16T10:49:42;4.55;;;3.65;;
15553;SDS011;7878;44.632;10.942;2023-05-16T10:52:08;6.32;;;3.10;;
15553;SDS011;7878;44.632;10.942;2023-05-16T10:54:36;7.57;;;3.50;;
15553;SDS011;7878;44.632;10.942;2023-05-16T10:57:24;5.63;;;3.42;;
15553;SDS011;7878;44.632;10.942;2023-05-16T10:59:50;5.40;;;3.50;;
15553;SDS011;7878;44.632;10.942;2023-05-16T11:02:29;5.25;;;3.25;;
15553;SDS011;7878;44.632;10.942;2023-05-16T11:05:00;10.05;;;3.72;;
15553;SDS011;7878;44.632;10.942;2023-05-16T11:07:33;5.80;;;3.33;;
15553;SDS011;7878;44.632;10.942;2023-05-16T11:12:51;4.20;;;3.50;;
15553;SDS011;7878;44.632;10.942;2023-05-16T11:15:17;5.30;;;3.70;;
15553;SDS011;7878;44.632;10.942;2023-05-16T11:17:50;5.25;;;3.80;;
15553;SDS011;7878;44.632;10.942;2023-05-16T11:20:29;4.70;;;3.92;;
15553;SDS011;7878;44.632;10.942;2023-05-16T11:23:19;6.75;;;4.15;;
15553;SDS011;7878;44.632;10.942;2023-05-16T11:25:46;5.90;;;4.18;;
15553;SDS011;7878;44.632;10.942;2023-05-16T11:28:15;9.90;;;7.85;;
15553;SDS011;7878;44.632;10.942;2023-05-16T11:30:44;6.53;;;4.32;;
15553;SDS011;7878;44.632;10.942;2023-05-16T11:33:10;8.43;;;4.72;;
15553;SDS011;7878;44.632;10.942;2023-05-16T11:35:39;6.43;;;4.70;;
15553;SDS011;7878;44.632;10.942;2023-05-16T11:38:10;6.30;;;4.10;;
15553;SDS011;7878;44.632;10.942;2023-05-16T11:40:40;5.28;;;4.57;;
15553;SDS011;7878;44.632;10.942;2023-05-16T11:43:07;6.38;;;4.88;;
15553;SDS011;7878;44.632;10.942;2023-05-16T11:45:32;5.60;;;4.35;;
15553;SDS011;7878;44.632;10.942;2023-05-16T11:48:00;6.05;;;4.32;;
15553;SDS011;7878;44.632;10.942;2023-05-16T11:50:28;6.28;;;4.40;;
15553;SDS011;7878;44.632;10.942;2023-05-16T11:52:54;7.55;;;4.47;;
15553;SDS011;7878;44.632;10.942;2023-05-16T11:55:23;7.78;;;4.93;;
15553;SDS011;7878;44.632;10.942;2023-05-16T11:57:51;7.65;;;4.60;;
15553;SDS011;7878;44.632;10.942;2023-05-16T12:00:18;5.97;;;5.03;;
15553;SDS011;7878;44.632;10.942;2023-05-16T12:02:46;7.18;;;4.50;;
15553;SDS011;7878;44.632;10.942;2023-05-16T12:05:12;7.85;;;4.45;;
15553;SDS011;7878;44.632;10.942;2023-05-16T12:07:39;8.43;;;4.85;;
15553;SDS011;7878;44.632;10.942;2023-05-16T12:10:07;6.10;;;4.60;;
15553;SDS011;7878;44.632;10.942;2023-05-16T12:12:35;6.60;;;4.25;;
15553;SDS011;7878;44.632;10.942;2023-05-16T12:15:02;5.32;;;4.45;;
15553;SDS011;7878;44.632;10.942;2023-05-16T12:17:30;6.45;;;4.65;;
15553;SDS011;7878;44.632;10.942;2023-05-16T12:19:57;11.27;;;4.97;;
15553;SDS011;7878;44.632;10.942;2023-05-16T12:22:23;14.23;;;4.90;;
15553;SDS011;7878;44.632;10.942;2023-05-16T12:24:49;6.10;;;5.03;;
15553;SDS011;7878;44.632;10.942;2023-05-16T12:27:22;7.40;;;4.65;;
15553;SDS011;7878;44.632;10.942;2023-05-16T12:29:49;5.45;;;4.00;;
15553;SDS011;7878;44.632;10.942;2023-05-16T12:32:18;7.43;;;4.82;;
15553;SDS011;7878;44.632;10.942;2023-05-16T12:34:48;8.35;;;5.03;;
15553;SDS011;7878;44.632;10.942;2023-05-16T12:37:16;6.20;;;5.43;;
15553;SDS011;7878;44.632;10.942;2023-05-16T12:39:42;8.48;;;5.05;;
15553;SDS011;7878;44.632;10.942;2023-05-16T12:42:10;7.03;;;4.82;;
15553;SDS011;7878;44.632;10.942;2023-05-16T12:44:37;6.30;;;4.50;;
15553;SDS011;7878;44.632;10.942;2023-05-16T12:47:03;4.75;;;4.25;;
15553;SDS011;7878;44.632;10.942;2023-05-16T12:49:36;7.50;;;5.18;;
15553;SDS011;7878;44.632;10.942;2023-05-16T12:52:18;9.00;;;6.10;;
15553;SDS011;7878;44.632;10.942;2023-05-16T12:54:45;7.00;;;5.00;;
15553;SDS011;7878;44.632;10.942;2023-05-16T12:57:11;8.85;;;5.03;;
15553;SDS011;7878;44.632;10.942;2023-05-16T12:59:37;10.20;;;5.28;;
15553;SDS011;7878;44.632;10.942;2023-05-16T13:02:03;7.70;;;5.63;;
15553;SDS011;7878;44.632;10.942;2023-05-16T13:04:29;8.98;;;5.60;;
15553;SDS011;7878;44.632;10.942;2023-05-16T13:06:55;8.98;;;5.40;;
15553;SDS011;7878;44.632;10.942;2023-05-16T13:09:21;6.05;;;4.82;;
15553;SDS011;7878;44.632;10.942;2023-05-16T13:11:48;8.23;;;5.05;;
15553;SDS011;7878;44.632;10.942;2023-05-16T13:14:14;9.68;;;5.82;;
15553;SDS011;7878;44.632;10.942;2023-05-16T13:16:41;10.18;;;9.18;;
15553;SDS011;7878;44.632;10.942;2023-05-16T13:19:07;7.18;;;6.15;;
15553;SDS011;7878;44.632;10.942;2023-05-16T13:21:33;6.68;;;5.20;;
15553;SDS011;7878;44.632;10.942;2023-05-16T13:23:59;8.30;;;5.50;;
15553;SDS011;7878;44.632;10.942;2023-05-16T13:26:25;6.40;;;5.13;;
15553;SDS011;7878;44.632;10.942;2023-05-16T13:28:51;6.78;;;5.30;;
15553;SDS011;7878;44.632;10.942;2023-05-16T13:31:19;8.43;;;5.07;;
15553;SDS011;7878;44.632;10.942;2023-05-16T13:33:46;7.55;;;5.55;;
15553;SDS011;7878;44.632;10.942;2023-05-16T13:36:11;7.93;;;4.90;;
15553;SDS011;7878;44.632;10.942;2023-05-16T13:38:37;8.05;;;4.95;;
15553;SDS011;7878;44.632;10.942;2023-05-16T13:41:03;7.75;;;5.57;;
15553;SDS011;7878;44.632;10.942;2023-05-16T13:43:28;6.68;;;5.10;;
15553;SDS011;7878;44.632;10.942;2023-05-16T13:45:54;7.40;;;5.05;;
15553;SDS011;7878;44.632;10.942;2023-05-16T13:48:21;5.85;;;5.25;;
15553;SDS011;7878;44.632;10.942;2023-05-16T13:50:46;6.80;;;5.32;;
15553;SDS011;7878;44.632;10.942;2023-05-16T13:53:12;6.20;;;4.80;;
15553;SDS011;7878;44.632;10.942;2023-05-16T13:55:40;7.18;;;5.22;;
15553;SDS011;7878;44.632;10.942;2023-05-16T13:58:06;7.00;;;5.47;;
15553;SDS011;7878;44.632;10.942;2023-05-16T14:00:32;8.73;;;5.45;;
15553;SDS011;7878;44.632;10.942;2023-05-16T14:02:58;12.32;;;6.22;;
15553;SDS011;7878;44.632;10.942;2023-05-16T14:05:23;7.03;;;5.82;;
15553;SDS011;7878;44.632;10.942;2023-05-16T14:07:50;9.93;;;5.90;;
15553;SDS011;7878;44.632;10.942;2023-05-16T14:10:16;8.07;;;5.22;;
15553;SDS011;7878;44.632;10.942;2023-05-16T14:12:41;8.00;;;5.32;;
15553;SDS011;7878;44.632;10.942;2023-05-16T14:15:07;9.40;;;5.53;;
15553;SDS011;7878;44.632;10.942;2023-05-16T14:17:33;8.55;;;5.32;;
15553;SDS011;7878;44.632;10.942;2023-05-16T14:19:59;7.28;;;5.38;;
15553;SDS011;7878;44.632;10.942;2023-05-16T14:22:25;10.95;;;6.10;;
15553;SDS011;7878;44.632;10.942;2023-05-16T14:24:52;10.27;;;5.25;;
15553;SDS011;7878;44.632;10.942;2023-05-16T14:27:18;8.52;;;5.88;;
15553;SDS011;7878;44.632;10.942;2023-05-16T14:29:43;5.20;;;4.70;;
15553;SDS011;7878;44.632;10.942;2023-05-16T14:32:11;9.48;;;5.53;;
15553;SDS011;7878;44.632;10.942;2023-05-16T14:34:37;7.53;;;5.32;;
15553;SDS011;7878;44.632;10.942;2023-05-16T14:37:06;7.25;;;5.05;;
15553;SDS011;7878;44.632;10.942;2023-05-16T14:39:34;7.88;;;5.63;;
15553;SDS011;7878;44.632;10.942;2023-05-16T14:42:00;6.55;;;5.78;;
15553;SDS011;7878;44.632;10.942;2023-05-16T14:44:25;9.82;;;6.38;;
15553;SDS011;7878;44.632;10.942;2023-05-16T14:46:51;7.07;;;5.85;;
15553;SDS011;7878;44.632;10.942;2023-05-16T14:49:16;9.70;;;5.47;;
15553;SDS011;7878;44.632;10.942;2023-05-16T14:51:42;6.53;;;5.25;;
15553;SDS011;7878;44.632;10.942;2023-05-16T14:54:13;7.90;;;6.45;;
15553;SDS011;7878;44.632;10.942;2023-05-16T14:56:40;11.73;;;6.07;;
15553;SDS011;7878;44.632;10.942;2023-05-16T14:59:05;9.10;;;7.30;;
15553;SDS011;7878;44.632;10.942;2023-05-16T15:01:31;10.13;;;6.47;;
15553;SDS011;7878;44.632;10.942;2023-05-16T15:03:57;8.38;;;5.10;;